createdAt,value
2018-01-05T00:00:34.996Z,21.00
2018-01-05T00:01:37.588Z,7.55
2018-01-05T00:02:40.257Z,17.33
2018-01-05T00:03:42.843Z,13.40
2018-01-05T00:04:45.378Z,9.65
2018-01-05T00:05:48.708Z,4.68
2018-01-05T00:06:51.312Z,6.35
2018-01-05T00:07:53.869Z,6.15
2018-01-05T00:08:56.573Z,11.90
2018-01-05T00:09:59.128Z,8.23
2018-01-05T00:11:01.704Z,7.75
2018-01-05T00:12:05.141Z,10.77
2018-01-05T00:13:07.785Z,11.25
2018-01-05T00:14:10.569Z,6.32
2018-01-05T00:15:13.232Z,8.05
2018-01-05T00:16:16.002Z,6.50
2018-01-05T00:17:18.550Z,7.03
2018-01-05T00:18:21.159Z,8.85
2018-01-05T00:19:23.694Z,16.27
2018-01-05T00:20:26.241Z,9.48
2018-01-05T00:21:28.797Z,9.63
2018-01-05T00:22:31.336Z,8.80
2018-01-05T00:23:34.128Z,14.77
2018-01-05T00:24:37.460Z,12.30
2018-01-05T00:25:39.997Z,5.45
2018-01-05T00:26:43.298Z,3.62
2018-01-05T00:27:45.861Z,5.80
2018-01-05T00:28:49.177Z,6.10
2018-01-05T00:29:51.720Z,13.70
2018-01-05T00:30:55.746Z,9.68
2018-01-05T00:31:58.287Z,8.93
2018-01-05T00:33:00.877Z,6.82
2018-01-05T00:34:03.428Z,8.65
2018-01-05T00:35:06.084Z,6.20
2018-01-05T00:36:08.692Z,11.75
2018-01-05T00:37:12.557Z,6.72
2018-01-05T00:38:15.605Z,8.65
2018-01-05T00:39:18.201Z,7.82
2018-01-05T00:40:20.771Z,8.30
2018-01-05T00:41:23.348Z,7.95
2018-01-05T00:42:25.968Z,7.72
2018-01-05T00:43:29.265Z,5.93
2018-01-05T00:44:31.877Z,10.70
2018-01-05T00:45:35.300Z,12.80
2018-01-05T00:46:38.734Z,9.35
2018-01-05T00:47:42.208Z,5.90
2018-01-05T00:48:45.485Z,11.12
2018-01-05T00:49:48.789Z,8.38
2018-01-05T00:50:51.390Z,10.88
2018-01-05T00:51:53.938Z,10.23
2018-01-05T00:52:56.511Z,10.52
2018-01-05T00:53:59.017Z,5.03
2018-01-05T00:55:01.569Z,8.52
2018-01-05T00:56:04.848Z,8.52
2018-01-05T00:57:07.382Z,13.23
2018-01-05T00:58:10.814Z,6.60
2018-01-05T00:59:13.339Z,15.40
2018-01-05T01:00:16.729Z,8.50
2018-01-05T01:01:19.282Z,8.38
2018-01-05T01:02:21.819Z,10.15
2018-01-05T01:03:24.361Z,8.73
2018-01-05T01:04:26.888Z,6.22
2018-01-05T01:05:29.404Z,6.45
2018-01-05T01:06:32.709Z,11.07
2018-01-05T01:07:35.258Z,10.30
2018-01-05T01:08:37.803Z,7.75
2018-01-05T01:09:40.332Z,5.55
2018-01-05T01:10:42.939Z,6.28
2018-01-05T01:11:45.509Z,10.10
2018-01-05T01:12:48.054Z,10.63
2018-01-05T01:13:50.589Z,7.65
2018-01-05T01:14:53.125Z,11.30
2018-01-05T01:15:55.694Z,12.65
2018-01-05T01:16:58.223Z,12.05
2018-01-05T01:18:01.609Z,10.45
2018-01-05T01:19:04.909Z,7.68
2018-01-05T01:20:08.209Z,11.07
2018-01-05T01:21:10.800Z,6.80
2018-01-05T01:22:13.325Z,7.20
2018-01-05T01:23:16.613Z,6.85
2018-01-05T01:24:19.986Z,8.38
2018-01-05T01:25:22.501Z,9.38
2018-01-05T01:26:25.007Z,8.63
2018-01-05T01:27:27.514Z,5.80
2018-01-05T01:28:30.012Z,12.27
2018-01-05T01:29:32.589Z,7.03
2018-01-05T01:30:35.114Z,9.52
2018-01-05T01:31:37.621Z,8.27
2018-01-05T01:32:40.114Z,11.12
2018-01-05T01:33:42.660Z,6.75
2018-01-05T01:34:46.003Z,5.87
2018-01-05T01:35:48.540Z,5.87
2018-01-05T01:36:51.070Z,8.25
2018-01-05T01:37:53.577Z,8.55
2018-01-05T01:38:56.810Z,7.32
2018-01-05T01:39:59.393Z,18.27
2018-01-05T01:41:02.712Z,9.45
2018-01-05T01:42:06.029Z,12.98
2018-01-05T01:43:08.603Z,16.83
2018-01-05T01:44:11.178Z,7.62
2018-01-05T01:45:13.713Z,17.10
2018-01-05T01:46:17.084Z,8.88
2018-01-05T01:47:19.605Z,6.95
2018-01-05T01:48:22.124Z,9.25
2018-01-05T01:49:25.320Z,16.45
2018-01-05T01:50:27.881Z,12.60
2018-01-05T01:51:30.468Z,12.18
2018-01-05T01:52:33.768Z,17.70
2018-01-05T01:53:37.059Z,13.20
2018-01-05T01:54:40.419Z,11.68
2018-01-05T01:55:42.928Z,13.65
2018-01-05T01:56:45.478Z,14.68
2018-01-05T01:57:48.064Z,11.63
2018-01-05T01:58:51.522Z,11.85
2018-01-05T01:59:54.833Z,11.43
2018-01-05T02:00:57.334Z,11.75
2018-01-05T02:01:59.876Z,6.95
2018-01-05T02:03:03.497Z,14.23
2018-01-05T02:04:06.056Z,8.30
2018-01-05T02:05:09.997Z,6.93
2018-01-05T02:06:12.525Z,17.20
2018-01-05T02:07:15.039Z,30.27
2018-01-05T02:08:17.577Z,4.80
2018-01-05T02:09:20.104Z,14.55
2018-01-05T02:10:22.672Z,9.40
2018-01-05T02:11:25.212Z,10.15
2018-01-05T02:12:27.772Z,7.25
2018-01-05T02:13:31.081Z,5.80
2018-01-05T02:14:33.631Z,6.80
2018-01-05T02:15:36.146Z,12.65
2018-01-05T02:16:38.673Z,9.57
2018-01-05T02:17:41.252Z,18.12
2018-01-05T02:18:43.764Z,8.77
2018-01-05T02:19:46.316Z,9.63
2018-01-05T02:20:48.844Z,9.13
2018-01-05T02:21:52.123Z,7.43
2018-01-05T02:22:55.395Z,9.73
2018-01-05T02:23:58.127Z,11.20
2018-01-05T02:25:00.641Z,8.20
2018-01-05T02:26:03.156Z,7.55
2018-01-05T02:27:05.673Z,12.68
2018-01-05T02:28:08.202Z,15.23
2018-01-05T02:29:10.835Z,19.35
2018-01-05T02:30:13.371Z,7.62
2018-01-05T02:31:15.969Z,12.35
2018-01-05T02:32:18.550Z,10.98
2018-01-05T02:33:21.864Z,11.30
2018-01-05T02:34:25.162Z,17.65
2018-01-05T02:35:27.721Z,9.60
2018-01-05T02:36:31.009Z,7.57
2018-01-05T02:37:34.315Z,7.78
2018-01-05T02:38:37.629Z,8.70
2018-01-05T02:39:40.151Z,11.93
2018-01-05T02:40:42.674Z,11.45
2018-01-05T02:41:45.192Z,11.73
2018-01-05T02:42:47.704Z,6.43
2018-01-05T02:43:50.211Z,19.83
2018-01-05T02:44:52.760Z,13.68
2018-01-05T02:45:55.284Z,11.80
2018-01-05T02:46:57.875Z,8.23
2018-01-05T02:48:01.152Z,8.30
2018-01-05T02:49:04.440Z,12.45
2018-01-05T02:50:07.749Z,12.10
2018-01-05T02:51:10.359Z,11.38
2018-01-05T02:52:12.886Z,14.60
2018-01-05T02:53:15.401Z,15.32
2018-01-05T02:54:17.914Z,11.45
2018-01-05T02:55:21.307Z,20.25
2018-01-05T02:56:23.790Z,10.00
2018-01-05T02:57:26.300Z,13.18
2018-01-05T02:58:28.808Z,15.02
2018-01-05T02:59:31.341Z,10.57
2018-01-05T03:00:33.843Z,8.90
2018-01-05T03:01:36.395Z,14.20
2018-01-05T03:02:38.914Z,11.12
2018-01-05T03:03:42.246Z,10.85
2018-01-05T03:04:44.844Z,16.98
2018-01-05T03:05:47.350Z,8.60
2018-01-05T03:06:50.825Z,8.93
2018-01-05T03:07:54.109Z,16.65
2018-01-05T03:08:56.871Z,12.50
2018-01-05T03:10:00.760Z,16.95
2018-01-05T03:11:03.278Z,14.05
2018-01-05T03:12:06.560Z,17.92
2018-01-05T03:13:09.127Z,14.45
2018-01-05T03:14:12.226Z,14.55
2018-01-05T03:15:16.208Z,9.25
2018-01-05T03:16:19.589Z,13.85
2018-01-05T03:17:22.128Z,14.82
2018-01-05T03:18:24.651Z,11.88
2018-01-05T03:19:27.175Z,12.40
2018-01-05T03:20:29.765Z,18.40
2018-01-05T03:21:32.285Z,9.40
2018-01-05T03:22:34.823Z,11.70
2018-01-05T03:23:37.352Z,19.75
2018-01-05T03:24:40.495Z,18.85
2018-01-05T03:25:43.008Z,11.75
2018-01-05T03:26:45.534Z,14.60
2018-01-05T03:27:48.046Z,11.88
2018-01-05T03:28:59.882Z,10.82
2018-01-05T03:30:02.481Z,16.37
2018-01-05T03:31:05.003Z,15.02
2018-01-05T03:32:07.509Z,18.67
2018-01-05T03:33:13.449Z,17.42
2018-01-05T03:34:16.067Z,17.73
2018-01-05T03:35:18.576Z,11.12
2018-01-05T03:36:21.099Z,19.87
2018-01-05T03:37:24.358Z,14.45
2018-01-05T03:38:26.902Z,16.12
2018-01-05T03:39:29.439Z,18.40
2018-01-05T03:40:32.014Z,22.92
2018-01-05T03:41:34.524Z,24.87
2018-01-05T03:42:37.131Z,14.07
2018-01-05T03:43:39.628Z,16.83
2018-01-05T03:44:42.155Z,21.15
2018-01-05T03:45:44.650Z,25.52
2018-01-05T03:46:47.971Z,11.98
2018-01-05T03:47:50.536Z,15.75
2018-01-05T03:48:53.637Z,14.95
2018-01-05T03:49:56.171Z,17.20
2018-01-05T03:50:58.698Z,20.70
2018-01-05T03:52:01.234Z,15.27
2018-01-05T03:53:03.793Z,20.88
2018-01-05T03:54:07.053Z,16.10
2018-01-05T03:55:14.846Z,17.85
2018-01-05T03:56:18.265Z,17.12
2018-01-05T03:57:20.835Z,29.27
2018-01-05T03:58:24.139Z,18.12
2018-01-05T03:59:26.636Z,17.02
2018-01-05T04:00:29.212Z,13.75
2018-01-05T04:01:31.762Z,17.73
2018-01-05T04:02:34.261Z,14.18
2018-01-05T04:03:36.768Z,15.05
2018-01-05T04:04:39.328Z,25.35
2018-01-05T04:05:41.881Z,18.23
2018-01-05T04:06:44.431Z,13.68
2018-01-05T04:07:46.960Z,22.17
2018-01-05T04:08:50.267Z,20.55
2018-01-05T04:09:52.806Z,16.08
2018-01-05T04:10:56.152Z,12.68
2018-01-05T04:11:58.729Z,12.27
2018-01-05T04:13:01.296Z,17.60
2018-01-05T04:14:03.837Z,16.37
2018-01-05T04:15:07.148Z,15.07
2018-01-05T04:16:09.744Z,17.25
2018-01-05T04:17:12.349Z,21.42
2018-01-05T04:18:14.881Z,18.60
2018-01-05T04:19:17.415Z,17.92
2018-01-05T04:20:20.848Z,11.80
2018-01-05T04:21:23.404Z,17.50
2018-01-05T04:22:25.924Z,24.55
2018-01-05T04:23:28.445Z,11.73
2018-01-05T04:24:30.989Z,26.80
2018-01-05T04:25:34.297Z,19.42
2018-01-05T04:26:36.867Z,11.80
2018-01-05T04:27:39.390Z,15.75
2018-01-05T04:28:41.952Z,17.52
2018-01-05T04:29:44.468Z,24.60
2018-01-05T04:30:46.969Z,18.45
2018-01-05T04:31:49.506Z,23.35
2018-01-05T04:32:52.045Z,26.33
2018-01-05T04:33:54.576Z,16.05
2018-01-05T04:34:57.387Z,16.55
2018-01-05T04:35:59.992Z,21.37
2018-01-05T04:37:02.553Z,22.10
2018-01-05T04:38:05.054Z,22.70
2018-01-05T04:39:08.343Z,14.23
2018-01-05T04:40:10.859Z,18.40
2018-01-05T04:41:14.070Z,16.35
2018-01-05T04:42:16.576Z,29.58
2018-01-05T04:43:19.855Z,11.35
2018-01-05T04:44:23.163Z,14.05
2018-01-05T04:45:25.683Z,19.98
2018-01-05T04:46:28.252Z,16.05
2018-01-05T04:47:30.760Z,8.88
2018-01-05T04:48:34.035Z,21.33
2018-01-05T04:49:37.392Z,24.52
2018-01-05T04:50:39.972Z,15.52
2018-01-05T04:51:42.499Z,18.98
2018-01-05T04:52:45.069Z,20.45
2018-01-05T04:53:48.512Z,26.85
2018-01-05T04:54:51.824Z,20.70
2018-01-05T04:55:55.108Z,14.50
2018-01-05T04:56:57.678Z,13.00
2018-01-05T04:58:01.045Z,13.73
2018-01-05T04:59:03.626Z,23.02
2018-01-05T05:00:06.148Z,20.00
2018-01-05T05:01:08.727Z,12.07
2018-01-05T05:02:11.837Z,12.52
2018-01-05T05:03:14.873Z,15.55
2018-01-05T05:04:18.326Z,13.85
2018-01-05T05:05:20.912Z,14.93
2018-01-05T05:06:23.416Z,16.35
2018-01-05T05:07:26.016Z,16.30
2018-01-05T05:08:28.602Z,9.25
2018-01-05T05:09:31.176Z,12.10
2018-01-05T05:10:33.795Z,11.43
2018-01-05T05:11:37.050Z,20.23
2018-01-05T05:12:39.604Z,10.88
2018-01-05T05:13:42.130Z,11.95
2018-01-05T05:14:45.409Z,17.33
2018-01-05T05:15:48.688Z,18.20
2018-01-05T05:16:51.189Z,16.73
2018-01-05T05:17:54.579Z,10.40
2018-01-05T05:18:57.106Z,14.18
2018-01-05T05:19:59.607Z,19.58
2018-01-05T05:21:02.899Z,13.60
2018-01-05T05:22:06.180Z,14.73
2018-01-05T05:23:09.415Z,13.50
2018-01-05T05:24:12.568Z,13.38
2018-01-05T05:25:15.097Z,14.93
2018-01-05T05:26:17.674Z,16.42
2018-01-05T05:27:20.180Z,13.62
2018-01-05T05:28:23.492Z,24.90
2018-01-05T05:29:26.033Z,15.20
2018-01-05T05:30:28.522Z,15.45
2018-01-05T05:31:31.127Z,11.70
2018-01-05T05:32:33.695Z,24.65
2018-01-05T05:33:36.267Z,14.45
2018-01-05T05:34:38.799Z,19.10
2018-01-05T05:35:42.157Z,16.27
2018-01-05T05:36:44.693Z,18.92
2018-01-05T05:37:47.204Z,19.45
2018-01-05T05:38:49.739Z,18.75
2018-01-05T05:39:52.264Z,22.70
2018-01-05T05:40:55.518Z,18.62
2018-01-05T05:41:58.833Z,24.83
2018-01-05T05:43:01.373Z,25.15
2018-01-05T05:44:03.905Z,21.02
2018-01-05T05:45:06.455Z,28.70
2018-01-05T05:46:09.758Z,21.98
2018-01-05T05:47:19.091Z,20.83
2018-01-05T05:48:21.610Z,19.77
2018-01-05T05:49:24.188Z,14.68
2018-01-05T05:50:26.713Z,23.55
2018-01-05T05:51:29.248Z,21.55
2018-01-05T05:52:32.530Z,11.25
2018-01-05T05:53:35.033Z,17.83
2018-01-05T05:54:38.320Z,20.55
2018-01-05T05:55:41.625Z,20.40
2018-01-05T05:56:44.335Z,20.37
2018-01-05T05:57:46.840Z,22.20
2018-01-05T05:58:50.132Z,17.52
2018-01-05T05:59:53.466Z,23.02
2018-01-05T06:00:55.987Z,25.65
2018-01-05T06:01:58.504Z,28.10
2018-01-05T06:03:01.046Z,23.02
2018-01-05T06:04:04.353Z,23.12
2018-01-05T06:05:06.859Z,20.00
2018-01-05T06:06:09.402Z,23.08
2018-01-05T06:07:11.929Z,33.38
2018-01-05T06:08:14.525Z,17.05
2018-01-05T06:09:17.141Z,17.05
2018-01-05T06:10:19.692Z,13.35
2018-01-05T06:11:22.263Z,16.12
2018-01-05T06:12:24.808Z,19.52
2018-01-05T06:13:28.132Z,15.75
2018-01-05T06:14:30.651Z,11.50
2018-01-05T06:15:33.184Z,21.17
2018-01-05T06:16:35.696Z,10.68
2018-01-05T06:17:39.034Z,15.73
2018-01-05T06:18:41.538Z,17.35
2018-01-05T06:19:44.089Z,16.30
2018-01-05T06:20:46.617Z,20.92
2018-01-05T06:21:49.148Z,14.73
2018-01-05T06:22:51.698Z,13.82
2018-01-05T06:23:54.223Z,11.57
2018-01-05T06:24:57.564Z,18.85
2018-01-05T06:26:00.169Z,18.75
2018-01-05T06:27:02.715Z,20.42
2018-01-05T06:28:05.244Z,16.15
2018-01-05T06:29:08.507Z,18.77
2018-01-05T06:30:11.039Z,22.83
2018-01-05T06:31:13.542Z,10.27
2018-01-05T06:32:16.100Z,16.67
2018-01-05T06:33:18.615Z,22.02
2018-01-05T06:34:21.139Z,17.65
2018-01-05T06:35:23.716Z,13.20
2018-01-05T06:36:26.525Z,15.30
2018-01-05T06:37:29.039Z,13.85
2018-01-05T06:38:31.606Z,11.68
2018-01-05T06:39:34.112Z,13.13
2018-01-05T06:40:36.654Z,11.90
2018-01-05T06:41:39.166Z,16.05
2018-01-05T06:42:41.699Z,17.08
2018-01-05T06:43:44.217Z,10.43
2018-01-05T06:44:46.725Z,14.32
2018-01-05T06:45:49.242Z,12.30
2018-01-05T06:46:51.775Z,16.62
2018-01-05T06:47:54.371Z,13.38
2018-01-05T06:48:56.940Z,10.57
2018-01-05T06:49:59.478Z,12.52
2018-01-05T06:51:02.972Z,16.45
2018-01-05T06:52:05.486Z,12.98
2018-01-05T06:53:08.033Z,14.10
2018-01-05T06:54:12.304Z,8.07
2018-01-05T06:55:15.649Z,12.80
2018-01-05T06:56:18.144Z,17.77
2018-01-05T06:57:20.660Z,14.77
2018-01-05T06:58:23.255Z,8.55
2018-01-05T06:59:25.753Z,14.32
2018-01-05T07:00:28.296Z,12.27
2018-01-05T07:01:30.815Z,9.18
2018-01-05T07:02:33.380Z,10.85
2018-01-05T07:03:36.693Z,11.85
2018-01-05T07:04:39.959Z,10.50
2018-01-05T07:05:43.275Z,11.02
2018-01-05T07:06:45.784Z,10.52
2018-01-05T07:07:48.427Z,8.50
2018-01-05T07:08:50.939Z,13.32
2018-01-05T07:09:53.479Z,7.22
2018-01-05T07:10:56.096Z,7.32
2018-01-05T07:11:58.598Z,15.60
2018-01-05T07:13:01.632Z,10.95
2018-01-05T07:14:04.139Z,10.20
2018-01-05T07:15:06.644Z,10.27
2018-01-05T07:16:10.322Z,8.52
2018-01-05T07:17:13.693Z,6.35
2018-01-05T07:18:16.204Z,11.02
2018-01-05T07:19:18.741Z,12.10
2018-01-05T07:20:21.301Z,10.82
2018-01-05T07:21:23.802Z,7.35
2018-01-05T07:22:27.140Z,8.05
2018-01-05T07:23:29.654Z,8.55
2018-01-05T07:24:32.944Z,11.23
2018-01-05T07:25:36.253Z,8.38
2018-01-05T07:26:38.791Z,5.72
2018-01-05T07:27:41.307Z,8.63
2018-01-05T07:28:43.838Z,6.82
2018-01-05T07:29:46.356Z,9.27
2018-01-05T07:30:49.363Z,9.18
2018-01-05T07:31:51.881Z,10.07
2018-01-05T07:32:54.394Z,7.55
2018-01-05T07:33:57.755Z,7.87
2018-01-05T07:35:00.288Z,4.78
2018-01-05T07:36:02.811Z,6.30
2018-01-05T07:37:06.122Z,7.53
2018-01-05T07:38:09.487Z,4.70
2018-01-05T07:39:12.194Z,6.15
2018-01-05T07:40:14.699Z,6.18
2018-01-05T07:41:17.977Z,5.30
2018-01-05T07:42:21.278Z,10.35
2018-01-05T07:43:24.578Z,4.43
2018-01-05T07:44:27.861Z,9.07
2018-01-05T07:45:31.149Z,3.37
2018-01-05T07:46:33.690Z,6.15
2018-01-05T07:47:36.232Z,7.28
2018-01-05T07:48:38.777Z,4.68
2018-01-05T07:49:41.295Z,4.18
2018-01-05T07:50:43.778Z,4.82
2018-01-05T07:51:46.302Z,3.67
2018-01-05T07:52:49.582Z,6.95
2018-01-05T07:53:52.131Z,6.40
2018-01-05T07:54:54.732Z,3.62
2018-01-05T07:55:57.411Z,7.32
2018-01-05T07:56:59.946Z,10.18
2018-01-05T07:58:02.449Z,5.78
2018-01-05T07:59:05.039Z,8.00
2018-01-05T08:00:07.554Z,6.40
2018-01-05T08:01:22.388Z,7.20
2018-01-05T08:02:24.912Z,5.82
2018-01-05T08:03:27.470Z,7.57
2018-01-05T08:04:30.767Z,4.50
2018-01-05T08:05:34.104Z,7.00
2018-01-05T08:06:36.682Z,7.55
2018-01-05T08:07:40.007Z,4.03
2018-01-05T08:08:43.331Z,8.00
2018-01-05T08:09:46.564Z,8.13
2018-01-05T08:10:49.836Z,8.90
2018-01-05T08:11:52.367Z,3.95
2018-01-05T08:12:54.876Z,8.82
2018-01-05T08:13:57.405Z,5.10
2018-01-05T08:15:01.486Z,7.53
2018-01-05T08:16:04.800Z,4.60
2018-01-05T08:17:08.098Z,7.57
2018-01-05T08:18:11.691Z,6.62
2018-01-05T08:19:14.206Z,5.15
2018-01-05T08:20:17.631Z,9.90
2018-01-05T08:21:20.963Z,6.28
2018-01-05T08:22:24.268Z,5.30
2018-01-05T08:23:26.780Z,7.32
2018-01-05T08:24:30.881Z,4.72
2018-01-05T08:25:33.402Z,5.78
2018-01-05T08:26:35.943Z,6.15
2018-01-05T08:27:43.022Z,5.28
2018-01-05T08:28:45.583Z,7.03
2018-01-05T08:29:48.846Z,4.10
2018-01-05T08:30:51.352Z,5.97
2018-01-05T08:31:54.820Z,8.15
2018-01-05T08:32:57.363Z,5.65
2018-01-05T08:33:59.829Z,9.27
2018-01-05T08:35:03.150Z,8.65
2018-01-05T08:36:06.060Z,6.75
2018-01-05T08:37:14.937Z,8.05
2018-01-05T08:38:25.796Z,4.53
2018-01-05T08:39:28.709Z,9.48
2018-01-05T08:40:31.226Z,5.97
2018-01-05T08:41:34.646Z,5.82
2018-01-05T08:42:37.200Z,6.03
2018-01-05T08:43:39.714Z,5.37
2018-01-05T08:44:42.274Z,4.60
2018-01-05T08:45:44.797Z,5.22
2018-01-05T08:46:47.325Z,3.58
2018-01-05T08:47:49.860Z,5.97
2018-01-05T08:48:52.507Z,4.05
2018-01-05T08:49:55.029Z,4.12
2018-01-05T08:50:57.574Z,3.92
2018-01-05T08:52:00.079Z,6.45
2018-01-05T08:53:02.613Z,6.78
2018-01-05T08:54:05.126Z,8.10
2018-01-05T08:55:07.632Z,6.60
2018-01-05T08:56:25.024Z,4.05
2018-01-05T08:57:27.591Z,5.68
2018-01-05T08:58:30.102Z,7.93
2018-01-05T08:59:32.648Z,4.78
2018-01-05T09:00:35.196Z,4.45
2018-01-05T09:01:37.721Z,6.10
2018-01-05T09:02:40.239Z,4.68
2018-01-05T09:03:42.775Z,4.25
2018-01-05T09:04:45.343Z,4.57
2018-01-05T09:05:47.870Z,4.85
2018-01-05T09:06:51.128Z,4.97
2018-01-05T09:07:53.658Z,5.10
2018-01-05T09:08:56.185Z,5.30
2018-01-05T09:09:58.714Z,6.05
2018-01-05T09:11:01.221Z,3.67
2018-01-05T09:12:03.746Z,3.47
2018-01-05T09:13:07.028Z,5.70
2018-01-05T09:14:09.785Z,5.45
2018-01-05T09:15:14.152Z,13.27
2018-01-05T09:16:16.685Z,6.97
2018-01-05T09:17:19.224Z,3.95
2018-01-05T09:18:22.480Z,4.57
2018-01-05T09:19:25.040Z,5.97
2018-01-05T09:20:27.563Z,3.15
2018-01-05T09:21:30.934Z,3.25
2018-01-05T09:22:33.448Z,4.57
2018-01-05T09:23:36.553Z,5.65
2018-01-05T09:24:39.116Z,5.80
2018-01-05T09:25:41.661Z,4.97
2018-01-05T09:26:44.928Z,2.55
2018-01-05T09:27:47.508Z,2.58
2018-01-05T09:28:50.997Z,3.75
2018-01-05T09:29:53.563Z,2.90
2018-01-05T09:30:56.112Z,4.10
2018-01-05T09:31:58.690Z,3.75
2018-01-05T09:33:01.214Z,6.47
2018-01-05T09:34:03.761Z,3.12
2018-01-05T09:35:06.353Z,4.47
2018-01-05T09:36:09.643Z,3.45
2018-01-05T09:37:14.145Z,4.22
2018-01-05T09:38:16.666Z,4.35
2018-01-05T09:39:20.749Z,5.85
2018-01-05T09:40:23.331Z,3.10
2018-01-05T09:41:25.913Z,4.93
2018-01-05T09:42:28.434Z,3.10
2018-01-05T09:43:30.976Z,3.72
2018-01-05T09:44:33.513Z,3.67
2018-01-05T09:45:36.052Z,3.70
2018-01-05T09:46:38.581Z,2.85
2018-01-05T09:47:41.148Z,3.30
2018-01-05T09:48:43.672Z,5.82
2018-01-05T09:49:46.209Z,5.12
2018-01-05T09:50:48.753Z,4.28
2018-01-05T09:51:51.294Z,4.45
2018-01-05T09:52:54.618Z,4.53
2018-01-05T09:53:57.144Z,5.35
2018-01-05T09:54:59.694Z,3.92
2018-01-05T09:56:02.260Z,3.35
2018-01-05T09:57:04.817Z,2.50
2018-01-05T09:58:07.392Z,3.58
2018-01-05T09:59:11.161Z,3.85
2018-01-05T10:00:14.519Z,4.60
2018-01-05T10:01:17.027Z,5.25
2018-01-05T10:02:19.560Z,4.75
2018-01-05T10:03:22.902Z,5.53
2018-01-05T10:04:25.443Z,4.90
2018-01-05T10:05:28.746Z,4.00
2018-01-05T10:06:31.336Z,5.57
2018-01-05T10:07:33.856Z,3.53
2018-01-05T10:08:36.969Z,4.80
2018-01-05T10:09:40.276Z,7.32
2018-01-05T10:10:42.794Z,3.60
2018-01-05T10:11:46.073Z,6.32
2018-01-05T10:12:48.582Z,5.87
2018-01-05T10:13:51.871Z,3.05
2018-01-05T10:14:55.145Z,4.97
2018-01-05T10:15:57.681Z,11.15
2018-01-05T10:17:00.266Z,5.10
2018-01-05T10:18:02.822Z,7.43
2018-01-05T10:19:05.498Z,8.88
2018-01-05T10:20:08.056Z,5.85
2018-01-05T10:21:15.750Z,8.13
2018-01-05T10:22:26.082Z,9.95
2018-01-05T10:23:28.621Z,10.32
2018-01-05T10:24:31.134Z,10.38
2018-01-05T10:25:33.666Z,5.93
2018-01-05T10:26:36.191Z,7.35
2018-01-05T10:27:38.719Z,8.02
2018-01-05T10:28:41.272Z,8.82
2018-01-05T10:29:43.800Z,8.65
2018-01-05T10:30:46.302Z,11.10
2018-01-05T10:31:48.831Z,8.73
2018-01-05T10:32:51.413Z,14.35
2018-01-05T10:33:53.940Z,7.37
2018-01-05T10:34:56.462Z,7.90
2018-01-05T10:35:58.999Z,5.97
2018-01-05T10:37:02.327Z,5.85
2018-01-05T10:38:04.881Z,19.15
2018-01-05T10:39:07.462Z,12.00
2018-01-05T10:40:10.010Z,8.68
2018-01-05T10:41:13.460Z,8.40
2018-01-05T10:42:16.132Z,9.05
2018-01-05T10:43:18.673Z,7.37
2018-01-05T10:44:21.218Z,13.45
2018-01-05T10:45:24.509Z,7.93
2018-01-05T10:46:27.817Z,18.02
2018-01-05T10:47:30.368Z,11.48
2018-01-05T10:48:33.676Z,11.40
2018-01-05T10:49:36.240Z,9.55
2018-01-05T10:50:38.765Z,7.12
2018-01-05T10:51:41.302Z,8.95
2018-01-05T10:52:43.852Z,9.73
2018-01-05T10:53:46.430Z,12.18
2018-01-05T10:54:49.725Z,10.38
2018-01-05T10:55:52.517Z,11.35
2018-01-05T10:56:55.110Z,14.50
2018-01-05T10:57:57.641Z,9.60
2018-01-05T10:59:00.243Z,13.20
2018-01-05T11:00:02.784Z,7.80
2018-01-05T11:01:05.335Z,21.62
2018-01-05T11:02:08.602Z,8.90
2018-01-05T11:03:11.241Z,13.35
2018-01-05T11:04:13.811Z,12.73
2018-01-05T11:05:16.325Z,18.08
2018-01-05T11:06:18.861Z,9.50
2018-01-05T11:07:21.374Z,18.92
2018-01-05T11:08:23.891Z,12.18
2018-01-05T11:09:26.424Z,9.38
2018-01-05T11:10:29.030Z,11.07
2018-01-05T11:11:31.590Z,10.00
2018-01-05T11:12:34.125Z,11.55
2018-01-05T11:13:36.681Z,15.88
2018-01-05T11:14:39.243Z,17.30
2018-01-05T11:15:41.790Z,10.52
2018-01-05T11:16:45.263Z,14.65
2018-01-05T11:17:48.569Z,7.95
2018-01-05T11:18:51.088Z,8.55
2018-01-05T11:19:53.640Z,7.75
2018-01-05T11:20:56.250Z,17.75
2018-01-05T11:21:59.091Z,10.82
2018-01-05T11:23:01.651Z,9.98
2018-01-05T11:24:04.176Z,11.07
2018-01-05T11:25:07.609Z,12.55
2018-01-05T11:26:13.380Z,19.10
2018-01-05T11:27:15.917Z,10.10
2018-01-05T11:28:18.792Z,7.93
2018-01-05T11:29:21.328Z,13.52
2018-01-05T11:30:23.893Z,14.25
2018-01-05T11:31:26.401Z,14.30
2018-01-05T11:32:28.925Z,10.80
2018-01-05T11:33:31.433Z,12.70
2018-01-05T11:34:34.725Z,17.37
2018-01-05T11:35:38.058Z,16.15
2018-01-05T11:36:40.721Z,12.25
2018-01-05T11:37:44.025Z,15.70
2018-01-05T11:38:46.576Z,14.98
2018-01-05T11:39:49.139Z,15.45
2018-01-05T11:40:51.642Z,11.38
2018-01-05T11:41:54.194Z,8.35
2018-01-05T11:42:56.706Z,11.88
2018-01-05T11:43:59.296Z,10.98
2018-01-05T11:45:01.857Z,12.05
2018-01-05T11:46:04.390Z,9.75
2018-01-05T11:47:06.912Z,7.87
2018-01-05T11:48:11.281Z,12.00
2018-01-05T11:49:13.840Z,16.48
2018-01-05T11:50:18.757Z,16.58
2018-01-05T11:51:21.471Z,17.48
2018-01-05T11:52:24.054Z,9.82
2018-01-05T11:53:26.598Z,15.40
2018-01-05T11:54:29.131Z,12.50
2018-01-05T11:55:31.691Z,8.98
2018-01-05T11:56:34.970Z,13.98
2018-01-05T11:57:37.756Z,7.35
2018-01-05T11:58:41.078Z,19.80
2018-01-05T11:59:43.614Z,8.65
2018-01-05T12:00:46.939Z,9.20
2018-01-05T12:01:49.541Z,12.25
2018-01-05T12:02:52.042Z,8.35
2018-01-05T12:03:54.586Z,12.93
2018-01-05T12:04:57.103Z,8.02
2018-01-05T12:05:59.688Z,20.58
2018-01-05T12:07:02.376Z,13.88
2018-01-05T12:08:04.930Z,7.40
2018-01-05T12:09:08.339Z,12.13
2018-01-05T12:10:16.542Z,18.35
2018-01-05T12:11:23.746Z,19.55
2018-01-05T12:12:28.782Z,20.70
2018-01-05T12:13:36.621Z,21.12
2018-01-05T12:14:39.921Z,15.38
2018-01-05T12:15:42.526Z,13.70
2018-01-05T12:16:45.039Z,13.50
2018-01-05T12:17:47.593Z,15.45
2018-01-05T12:18:50.110Z,19.75
2018-01-05T12:19:52.637Z,15.88
2018-01-05T12:20:55.200Z,11.30
2018-01-05T12:21:57.728Z,11.27
2018-01-05T12:23:00.313Z,10.68
2018-01-05T12:24:02.914Z,12.40
2018-01-05T12:25:05.430Z,14.75
2018-01-05T12:27:24.610Z,11.57
2018-01-05T12:28:27.177Z,17.58
2018-01-05T12:29:30.457Z,14.63
2018-01-05T12:30:33.023Z,15.30
2018-01-05T12:31:35.542Z,12.48
2018-01-05T12:32:38.066Z,17.75
2018-01-05T12:33:41.391Z,11.85
2018-01-05T12:34:43.959Z,12.63
2018-01-05T12:35:46.526Z,15.02
2018-01-05T12:36:49.978Z,20.70
2018-01-05T12:37:52.538Z,9.73
2018-01-05T12:38:55.067Z,12.70
2018-01-05T12:39:57.589Z,11.23
2018-01-05T12:41:00.114Z,26.85
2018-01-05T12:42:02.681Z,12.82
2018-01-05T12:43:05.235Z,16.92
2018-01-05T12:44:08.530Z,18.85
2018-01-05T12:45:27.481Z,12.10
2018-01-05T12:46:30.062Z,15.23
2018-01-05T12:47:33.331Z,14.52
2018-01-05T12:48:35.908Z,14.20
2018-01-05T12:49:39.504Z,14.68
2018-01-05T12:50:42.572Z,18.37
2018-01-05T12:51:45.901Z,15.05
2018-01-05T12:52:48.478Z,15.63
2018-01-05T12:53:50.997Z,23.75
2018-01-05T12:54:53.561Z,21.00
2018-01-05T12:55:56.093Z,19.00
2018-01-05T12:56:58.658Z,10.88
2018-01-05T12:58:01.189Z,26.95
2018-01-05T12:59:03.733Z,19.62
2018-01-05T13:00:06.276Z,23.02
2018-01-05T13:01:08.804Z,17.75
2018-01-05T13:02:19.369Z,13.25
2018-01-05T13:03:25.078Z,17.40
2018-01-05T13:04:29.709Z,17.52
2018-01-05T13:05:32.299Z,10.93
2018-01-05T13:06:34.841Z,14.32
2018-01-05T13:07:37.387Z,12.52
2018-01-05T13:08:40.852Z,13.18
2018-01-05T13:09:43.411Z,15.52
2018-01-05T13:10:45.936Z,21.40
2018-01-05T13:11:48.486Z,21.27
2018-01-05T13:12:51.073Z,17.25
2018-01-05T13:13:53.599Z,18.00
2018-01-05T13:14:56.152Z,14.38
2018-01-05T13:15:58.890Z,15.02
2018-01-05T13:17:01.646Z,24.42
2018-01-05T13:18:04.198Z,15.23
2018-01-05T13:19:06.854Z,32.65
2018-01-05T13:20:09.437Z,12.88
2018-01-05T13:21:23.055Z,22.37
2018-01-05T13:22:25.612Z,13.88
2018-01-05T13:23:28.916Z,21.40
2018-01-05T13:24:31.465Z,18.02
2018-01-05T13:25:33.995Z,18.62
2018-01-05T13:26:36.531Z,13.68
2018-01-05T13:27:39.073Z,15.20
2018-01-05T13:28:41.636Z,18.95
2018-01-05T13:29:44.203Z,23.25
2018-01-05T13:30:47.506Z,13.73
2018-01-05T13:31:50.048Z,17.70
2018-01-05T13:32:53.378Z,11.43
2018-01-05T13:33:55.951Z,20.77
2018-01-05T13:34:58.538Z,11.73
2018-01-05T13:36:01.133Z,15.75
2018-01-05T13:37:03.640Z,18.77
2018-01-05T13:38:06.958Z,20.48
2018-01-05T13:39:09.808Z,20.05
2018-01-05T13:40:23.653Z,13.73
2018-01-05T13:41:26.190Z,19.77
2018-01-05T13:42:28.715Z,18.17